sensor_id;sensor_type;location;lat;lon;timestamp;pressure;altitude;pressure_sealevel;temperature;humidity
48680;BME280;34475;51.658;5.634;2023-02-11T00:00:00;103210;;;6.4;100.0
48680;BME280;34475;51.658;5.634;2023-02-11T00:01:04;103210;;;6.4;100.0
48680;BME280;34475;51.658;5.634;2023-02-11T00:02:00;103210;;;6.4;100.0
48680;BME280;34475;51.658;5.634;2023-02-11T00:03:00;103220;;;6.5;100.0
48680;BME280;34475;51.658;5.634;2023-02-11T00:04:00;103220;;;6.5;100.0
48680;BME280;34475;51.658;5.634;2023-02-11T00:05:00;103210;;;6.5;100.0
48680;BME280;34475;51.658;5.634;2023-02-11T00:06:00;103210;;;6.5;100.0
48680;BME280;34475;51.658;5.634;2023-02-11T00:07:00;103210;;;6.5;100.0
48680;BME280;34475;51.658;5.634;2023-02-11T00:08:00;103210;;;6.5;100.0
48680;BME280;34475;51.658;5.634;2023-02-11T00:09:00;103210;;;6.5;100.0
48680;BME280;34475;51.658;5.634;2023-02-11T00:10:00;103210;;;6.5;100.0
48680;BME280;34475;51.658;5.634;2023-02-11T00:11:00;103210;;;6.6;100.0
48680;BME280;34475;51.658;5.634;2023-02-11T00:12:00;103210;;;6.6;100.0
48680;BME280;34475;51.658;5.634;2023-02-11T00:13:00;103200;;;6.4;100.0
48680;BME280;34475;51.658;5.634;2023-02-11T00:14:01;103200;;;6.4;100.0
48680;BME280;34475;51.658;5.634;2023-02-11T00:15:00;103200;;;6.4;100.0
48680;BME280;34475;51.658;5.634;2023-02-11T00:16:04;103200;;;6.4;100.0
48680;BME280;34475;51.658;5.634;2023-02-11T00:17:00;103200;;;6.5;100.0
48680;BME280;34475;51.658;5.634;2023-02-11T00:18:00;103200;;;6.5;100.0
48680;BME280;34475;51.658;5.634;2023-02-11T00:19:01;103200;;;6.4;100.0
48680;BME280;34475;51.658;5.634;2023-02-11T00:20:00;103200;;;6.4;100.0
48680;BME280;34475;51.658;5.634;2023-02-11T00:21:04;103190;;;6.4;100.0
48680;BME280;34475;51.658;5.634;2023-02-11T00:22:00;103190;;;6.4;100.0
48680;BME280;34475;51.658;5.634;2023-02-11T00:23:00;103190;;;6.4;100.0
48680;BME280;34475;51.658;5.634;2023-02-11T00:24:00;103190;;;6.4;100.0
48680;BME280;34475;51.658;5.634;2023-02-11T00:25:00;103200;;;6.4;100.0
48680;BME280;34475;51.658;5.634;2023-02-11T00:26:00;103200;;;6.4;100.0
48680;BME280;34475;51.658;5.634;2023-02-11T00:27:00;103200;;;6.4;100.0
48680;BME280;34475;51.658;5.634;2023-02-11T00:28:00;103200;;;6.4;100.0
48680;BME280;34475;51.658;5.634;2023-02-11T00:29:00;103200;;;6.5;100.0
48680;BME280;34475;51.658;5.634;2023-02-11T00:30:00;103200;;;6.5;100.0
48680;BME280;34475;51.658;5.634;2023-02-11T00:31:00;103200;;;6.4;100.0
48680;BME280;34475;51.658;5.634;2023-02-11T00:32:00;103200;;;6.4;100.0
48680;BME280;34475;51.658;5.634;2023-02-11T00:33:00;103190;;;6.4;100.0
48680;BME280;34475;51.658;5.634;2023-02-11T00:34:00;103190;;;6.4;100.0
48680;BME280;34475;51.658;5.634;2023-02-11T00:35:00;103190;;;6.4;100.0
48680;BME280;34475;51.658;5.634;2023-02-11T00:36:04;103190;;;6.4;100.0
48680;BME280;34475;51.658;5.634;2023-02-11T00:37:00;103190;;;6.4;100.0
48680;BME280;34475;51.658;5.634;2023-02-11T00:38:00;103190;;;6.4;100.0
48680;BME280;34475;51.658;5.634;2023-02-11T00:39:00;103190;;;6.4;100.0
48680;BME280;34475;51.658;5.634;2023-02-11T00:40:00;103190;;;6.4;100.0
48680;BME280;34475;51.658;5.634;2023-02-11T00:41:00;103190;;;6.5;100.0
48680;BME280;34475;51.658;5.634;2023-02-11T00:42:00;103190;;;6.5;100.0
48680;BME280;34475;51.658;5.634;2023-02-11T00:43:00;103200;;;6.4;100.0
48680;BME280;34475;51.658;5.634;2023-02-11T00:44:00;103200;;;6.4;100.0
48680;BME280;34475;51.658;5.634;2023-02-11T00:45:00;103200;;;6.3;100.0
48680;BME280;34475;51.658;5.634;2023-02-11T00:46:00;103200;;;6.3;100.0
48680;BME280;34475;51.658;5.634;2023-02-11T00:47:00;103200;;;6.4;100.0
48680;BME280;34475;51.658;5.634;2023-02-11T00:48:00;103200;;;6.4;100.0
48680;BME280;34475;51.658;5.634;2023-02-11T00:49:00;103200;;;6.4;100.0
48680;BME280;34475;51.658;5.634;2023-02-11T00:50:00;103200;;;6.4;100.0
48680;BME280;34475;51.658;5.634;2023-02-11T00:51:00;103190;;;6.5;100.0
48680;BME280;34475;51.658;5.634;2023-02-11T00:52:00;103190;;;6.5;100.0
48680;BME280;34475;51.658;5.634;2023-02-11T00:53:00;103200;;;6.4;100.0
48680;BME280;34475;51.658;5.634;2023-02-11T00:54:00;103200;;;6.4;100.0
48680;BME280;34475;51.658;5.634;2023-02-11T00:55:00;103190;;;6.4;100.0
48680;BME280;34475;51.658;5.634;2023-02-11T00:56:00;103190;;;6.4;100.0
48680;BME280;34475;51.658;5.634;2023-02-11T00:57:00;103190;;;6.4;100.0
48680;BME280;34475;51.658;5.634;2023-02-11T00:58:00;103190;;;6.4;100.0
48680;BME280;34475;51.658;5.634;2023-02-11T00:59:00;103190;;;6.4;100.0
48680;BME280;34475;51.658;5.634;2023-02-11T01:00:00;103190;;;6.4;100.0
48680;BME280;34475;51.658;5.634;2023-02-11T01:01:00;103200;;;6.4;100.0
48680;BME280;34475;51.658;5.634;2023-02-11T01:02:00;103200;;;6.4;100.0
48680;BME280;34475;51.658;5.634;2023-02-11T01:03:00;103200;;;6.4;100.0
48680;BME280;34475;51.658;5.634;2023-02-11T01:04:00;103200;;;6.4;100.0
48680;BME280;34475;51.658;5.634;2023-02-11T01:05:00;103200;;;6.4;100.0
48680;BME280;34475;51.658;5.634;2023-02-11T01:06:00;103200;;;6.4;100.0
48680;BME280;34475;51.658;5.634;2023-02-11T01:07:00;103200;;;6.4;100.0
48680;BME280;34475;51.658;5.634;2023-02-11T01:08:00;103200;;;6.4;100.0
48680;BME280;34475;51.658;5.634;2023-02-11T01:09:00;103200;;;6.4;100.0
48680;BME280;34475;51.658;5.634;2023-02-11T01:10:00;103200;;;6.4;100.0
48680;BME280;34475;51.658;5.634;2023-02-11T01:11:02;103200;;;6.5;100.0
48680;BME280;34475;51.658;5.634;2023-02-11T01:12:00;103200;;;6.5;100.0
48680;BME280;34475;51.658;5.634;2023-02-11T01:13:00;103200;;;6.4;100.0
48680;BME280;34475;51.658;5.634;2023-02-11T01:14:00;103200;;;6.4;100.0
48680;BME280;34475;51.658;5.634;2023-02-11T01:15:00;103200;;;6.4;100.0
48680;BME280;34475;51.658;5.634;2023-02-11T01:16:00;103200;;;6.4;100.0
48680;BME280;34475;51.658;5.634;2023-02-11T01:17:00;103200;;;6.4;100.0
48680;BME280;34475;51.658;5.634;2023-02-11T01:18:00;103200;;;6.4;100.0
48680;BME280;34475;51.658;5.634;2023-02-11T01:19:00;103200;;;6.4;100.0
48680;BME280;34475;51.658;5.634;2023-02-11T01:20:07;103200;;;6.4;100.0
48680;BME280;34475;51.658;5.634;2023-02-11T01:21:00;103210;;;6.4;100.0
48680;BME280;34475;51.658;5.634;2023-02-11T01:22:00;103210;;;6.4;100.0
48680;BME280;34475;51.658;5.634;2023-02-11T01:23:00;103210;;;6.5;100.0
48680;BME280;34475;51.658;5.634;2023-02-11T01:24:00;103210;;;6.5;100.0
48680;BME280;34475;51.658;5.634;2023-02-11T01:25:00;103220;;;6.4;100.0
48680;BME280;34475;51.658;5.634;2023-02-11T01:26:00;103220;;;6.4;100.0
48680;BME280;34475;51.658;5.634;2023-02-11T01:27:00;103210;;;6.5;100.0
48680;BME280;34475;51.658;5.634;2023-02-11T01:28:00;103210;;;6.5;100.0
48680;BME280;34475;51.658;5.634;2023-02-11T01:29:00;103210;;;6.4;100.0
48680;BME280;34475;51.658;5.634;2023-02-11T01:30:00;103210;;;6.4;100.0
48680;BME280;34475;51.658;5.634;2023-02-11T01:31:00;103210;;;6.4;100.0
48680;BME280;34475;51.658;5.634;2023-02-11T01:32:00;103210;;;6.4;100.0
48680;BME280;34475;51.658;5.634;2023-02-11T01:33:00;103200;;;6.5;100.0
48680;BME280;34475;51.658;5.634;2023-02-11T01:34:00;103200;;;6.5;100.0
48680;BME280;34475;51.658;5.634;2023-02-11T01:35:00;103190;;;6.4;100.0
48680;BME280;34475;51.658;5.634;2023-02-11T01:36:01;103190;;;6.4;100.0
48680;BME280;34475;51.658;5.634;2023-02-11T01:37:00;103190;;;6.3;100.0
48680;BME280;34475;51.658;5.634;2023-02-11T01:38:00;103190;;;6.3;100.0
48680;BME280;34475;51.658;5.634;2023-02-11T01:39:00;103190;;;6.4;100.0
48680;BME280;34475;51.658;5.634;2023-02-11T01:40:00;103190;;;6.4;100.0
48680;BME280;34475;51.658;5.634;2023-02-11T01:41:01;103190;;;6.4;100.0
48680;BME280;34475;51.658;5.634;2023-02-11T01:42:00;103190;;;6.4;100.0
48680;BME280;34475;51.658;5.634;2023-02-11T01:43:00;103170;;;6.4;100.0
48680;BME280;34475;51.658;5.634;2023-02-11T01:45:00;103160;;;6.4;100.0
48680;BME280;34475;51.658;5.634;2023-02-11T01:46:01;103160;;;6.4;100.0
48680;BME280;34475;51.658;5.634;2023-02-11T01:47:00;103150;;;6.4;100.0
48680;BME280;34475;51.658;5.634;2023-02-11T01:48:00;103150;;;6.4;100.0
48680;BME280;34475;51.658;5.634;2023-02-11T01:49:02;103150;;;6.4;100.0
48680;BME280;34475;51.658;5.634;2023-02-11T01:50:00;103150;;;6.4;100.0
48680;BME280;34475;51.658;5.634;2023-02-11T01:51:02;103150;;;6.4;100.0
48680;BME280;34475;51.658;5.634;2023-02-11T01:52:01;103150;;;6.4;100.0
48680;BME280;34475;51.658;5.634;2023-02-11T01:53:00;103150;;;6.4;100.0
48680;BME280;34475;51.658;5.634;2023-02-11T01:54:00;103150;;;6.4;100.0
48680;BME280;34475;51.658;5.634;2023-02-11T01:55:01;103160;;;6.4;100.0
48680;BME280;34475;51.658;5.634;2023-02-11T01:56:00;103160;;;6.4;100.0
48680;BME280;34475;51.658;5.634;2023-02-11T01:57:00;103160;;;6.4;100.0
48680;BME280;34475;51.658;5.634;2023-02-11T01:58:01;103160;;;6.4;100.0
48680;BME280;34475;51.658;5.634;2023-02-11T01:59:02;103160;;;6.4;100.0
48680;BME280;34475;51.658;5.634;2023-02-11T02:00:05;103160;;;6.4;100.0
48680;BME280;34475;51.658;5.634;2023-02-11T02:01:00;103150;;;6.3;100.0
48680;BME280;34475;51.658;5.634;2023-02-11T02:02:02;103150;;;6.3;100.0
48680;BME280;34475;51.658;5.634;2023-02-11T02:04:00;103150;;;6.3;100.0
48680;BME280;34475;51.658;5.634;2023-02-11T02:05:03;103150;;;6.3;100.0
48680;BME280;34475;51.658;5.634;2023-02-11T02:06:02;103150;;;6.3;100.0
48680;BME280;34475;51.658;5.634;2023-02-11T02:07:02;103150;;;6.2;100.0
48680;BME280;34475;51.658;5.634;2023-02-11T02:09:08;103160;;;6.2;100.0
48680;BME280;34475;51.658;5.634;2023-02-11T02:10:04;103160;;;6.2;100.0
48680;BME280;34475;51.658;5.634;2023-02-11T02:11:00;103160;;;6.3;100.0
48680;BME280;34475;51.658;5.634;2023-02-11T02:12:00;103160;;;6.3;100.0
48680;BME280;34475;51.658;5.634;2023-02-11T02:13:00;103170;;;6.3;100.0
48680;BME280;34475;51.658;5.634;2023-02-11T02:14:00;103170;;;6.3;100.0
48680;BME280;34475;51.658;5.634;2023-02-11T02:16:01;103180;;;6.3;100.0
48680;BME280;34475;51.658;5.634;2023-02-11T02:17:00;103180;;;6.4;100.0
48680;BME280;34475;51.658;5.634;2023-02-11T02:20:02;103180;;;6.3;100.0
48680;BME280;34475;51.658;5.634;2023-02-11T02:24:03;103170;;;6.4;100.0
48680;BME280;34475;51.658;5.634;2023-02-11T02:27:02;103160;;;6.3;100.0
48680;BME280;34475;51.658;5.634;2023-02-11T02:29:05;103170;;;6.3;100.0
48680;BME280;34475;51.658;5.634;2023-02-11T02:33:03;103170;;;6.4;100.0
48680;BME280;34475;51.658;5.634;2023-02-11T02:34:01;103170;;;6.4;100.0
48680;BME280;34475;51.658;5.634;2023-02-11T02:35:03;103160;;;6.4;100.0
48680;BME280;34475;51.658;5.634;2023-02-11T02:37:04;103150;;;6.3;100.0
48680;BME280;34475;51.658;5.634;2023-02-11T02:38:01;103150;;;6.3;100.0
48680;BME280;34475;51.658;5.634;2023-02-11T02:39:04;103150;;;6.3;100.0
48680;BME280;34475;51.658;5.634;2023-02-11T02:40:01;103150;;;6.3;100.0
48680;BME280;34475;51.658;5.634;2023-02-11T02:41:02;103150;;;6.4;100.0
48680;BME280;34475;51.658;5.634;2023-02-11T02:42:00;103150;;;6.4;100.0
48680;BME280;34475;51.658;5.634;2023-02-11T02:43:00;103150;;;6.3;100.0
48680;BME280;34475;51.658;5.634;2023-02-11T02:44:00;103150;;;6.3;100.0
48680;BME280;34475;51.658;5.634;2023-02-11T02:45:00;103150;;;6.2;100.0
48680;BME280;34475;51.658;5.634;2023-02-11T02:46:17;103150;;;6.2;100.0
48680;BME280;34475;51.658;5.634;2023-02-11T02:47:00;103150;;;6.3;100.0
48680;BME280;34475;51.658;5.634;2023-02-11T02:48:00;103150;;;6.3;100.0
48680;BME280;34475;51.658;5.634;2023-02-11T02:49:00;103150;;;6.3;100.0
48680;BME280;34475;51.658;5.634;2023-02-11T02:50:00;103150;;;6.3;100.0
48680;BME280;34475;51.658;5.634;2023-02-11T02:52:06;103160;;;6.3;100.0
48680;BME280;34475;51.658;5.634;2023-02-11T02:54:06;103160;;;6.3;100.0
48680;BME280;34475;51.658;5.634;2023-02-11T02:56:01;103160;;;6.2;100.0
48680;BME280;34475;51.658;5.634;2023-02-11T03:01:03;103160;;;6.3;100.0
48680;BME280;34475;51.658;5.634;2023-02-11T03:04:02;103160;;;6.3;100.0
48680;BME280;34475;51.658;5.634;2023-02-11T03:06:02;103160;;;6.2;100.0
48680;BME280;34475;51.658;5.634;2023-02-11T03:09:04;103150;;;6.2;100.0
48680;BME280;34475;51.658;5.634;2023-02-11T03:11:00;103150;;;6.2;100.0
48680;BME280;34475;51.658;5.634;2023-02-11T03:12:00;103150;;;6.2;100.0
48680;BME280;34475;51.658;5.634;2023-02-11T03:13:00;103160;;;6.1;100.0
48680;BME280;34475;51.658;5.634;2023-02-11T03:14:00;103160;;;6.1;100.0
48680;BME280;34475;51.658;5.634;2023-02-11T03:15:00;103150;;;6.2;100.0
48680;BME280;34475;51.658;5.634;2023-02-11T03:16:03;103150;;;6.2;100.0
48680;BME280;34475;51.658;5.634;2023-02-11T03:17:00;103150;;;6.2;100.0
48680;BME280;34475;51.658;5.634;2023-02-11T03:18:00;103150;;;6.2;100.0
48680;BME280;34475;51.658;5.634;2023-02-11T03:19:02;103150;;;6.2;100.0
48680;BME280;34475;51.658;5.634;2023-02-11T03:20:00;103150;;;6.2;100.0
48680;BME280;34475;51.658;5.634;2023-02-11T03:21:00;103140;;;6.2;100.0
48680;BME280;34475;51.658;5.634;2023-02-11T03:22:00;103140;;;6.2;100.0
48680;BME280;34475;51.658;5.634;2023-02-11T03:23:03;103140;;;6.2;100.0
48680;BME280;34475;51.658;5.634;2023-02-11T03:24:02;103140;;;6.2;100.0
48680;BME280;34475;51.658;5.634;2023-02-11T03:25:00;103140;;;6.2;100.0
48680;BME280;34475;51.658;5.634;2023-02-11T03:26:04;103140;;;6.2;100.0
48680;BME280;34475;51.658;5.634;2023-02-11T03:27:03;103140;;;6.2;100.0
48680;BME280;34475;51.658;5.634;2023-02-11T03:28:04;103140;;;6.2;100.0
48680;BME280;34475;51.658;5.634;2023-02-11T03:29:02;103150;;;6.2;100.0
48680;BME280;34475;51.658;5.634;2023-02-11T03:30:03;103150;;;6.2;100.0
48680;BME280;34475;51.658;5.634;2023-02-11T03:31:05;103150;;;6.2;100.0
48680;BME280;34475;51.658;5.634;2023-02-11T03:33:02;103150;;;6.1;100.0
48680;BME280;34475;51.658;5.634;2023-02-11T03:34:02;103150;;;6.1;100.0
48680;BME280;34475;51.658;5.634;2023-02-11T03:36:02;103150;;;6.1;100.0
48680;BME280;34475;51.658;5.634;2023-02-11T03:37:04;103150;;;6.1;100.0
48680;BME280;34475;51.658;5.634;2023-02-11T03:38:01;103150;;;6.1;100.0
48680;BME280;34475;51.658;5.634;2023-02-11T03:39:00;103150;;;6.1;100.0
48680;BME280;34475;51.658;5.634;2023-02-11T03:41:00;103150;;;6.2;100.0
48680;BME280;34475;51.658;5.634;2023-02-11T03:42:00;103150;;;6.2;100.0
48680;BME280;34475;51.658;5.634;2023-02-11T03:43:02;103150;;;6.2;100.0
48680;BME280;34475;51.658;5.634;2023-02-11T03:44:00;103150;;;6.2;100.0
48680;BME280;34475;51.658;5.634;2023-02-11T03:45:03;103150;;;6.1;100.0
48680;BME280;34475;51.658;5.634;2023-02-11T03:46:00;103150;;;6.1;100.0
48680;BME280;34475;51.658;5.634;2023-02-11T03:47:00;103150;;;6.1;100.0
48680;BME280;34475;51.658;5.634;2023-02-11T03:48:02;103150;;;6.1;100.0
48680;BME280;34475;51.658;5.634;2023-02-11T03:49:02;103140;;;6.1;100.0
48680;BME280;34475;51.658;5.634;2023-02-11T03:50:00;103140;;;6.1;100.0
48680;BME280;34475;51.658;5.634;2023-02-11T03:51:00;103130;;;6.1;100.0
48680;BME280;34475;51.658;5.634;2023-02-11T03:52:00;103130;;;6.1;100.0
48680;BME280;34475;51.658;5.634;2023-02-11T03:53:00;103140;;;6.1;100.0
48680;BME280;34475;51.658;5.634;2023-02-11T03:54:01;103140;;;6.1;100.0
48680;BME280;34475;51.658;5.634;2023-02-11T03:55:00;103140;;;6.1;100.0
48680;BME280;34475;51.658;5.634;2023-02-11T03:56:02;103140;;;6.1;100.0
48680;BME280;34475;51.658;5.634;2023-02-11T03:57:00;103130;;;6.1;100.0
48680;BME280;34475;51.658;5.634;2023-02-11T03:58:00;103130;;;6.1;100.0
48680;BME280;34475;51.658;5.634;2023-02-11T03:59:00;103130;;;6.0;100.0
48680;BME280;34475;51.658;5.634;2023-02-11T04:00:00;103130;;;6.0;100.0
48680;BME280;34475;51.658;5.634;2023-02-11T04:01:00;103140;;;6.0;100.0
48680;BME280;34475;51.658;5.634;2023-02-11T04:02:00;103140;;;6.0;100.0
48680;BME280;34475;51.658;5.634;2023-02-11T04:03:00;103130;;;6.1;100.0
48680;BME280;34475;51.658;5.634;2023-02-11T04:04:00;103130;;;6.1;100.0
48680;BME280;34475;51.658;5.634;2023-02-11T04:05:00;103130;;;6.2;100.0
48680;BME280;34475;51.658;5.634;2023-02-11T04:06:00;103130;;;6.2;100.0
48680;BME280;34475;51.658;5.634;2023-02-11T04:07:00;103120;;;6.0;100.0
48680;BME280;34475;51.658;5.634;2023-02-11T04:08:00;103120;;;6.0;100.0
48680;BME280;34475;51.658;5.634;2023-02-11T04:09:00;103110;;;6.1;100.0
48680;BME280;34475;51.658;5.634;2023-02-11T04:10:00;103110;;;6.1;100.0
48680;BME280;34475;51.658;5.634;2023-02-11T04:11:00;103110;;;6.0;100.0
48680;BME280;34475;51.658;5.634;2023-02-11T04:12:00;103110;;;6.0;100.0
48680;BME280;34475;51.658;5.634;2023-02-11T04:13:00;103100;;;6.1;100.0
48680;BME280;34475;51.658;5.634;2023-02-11T04:14:00;103100;;;6.1;100.0
48680;BME280;34475;51.658;5.634;2023-02-11T04:15:00;103100;;;6.1;100.0
48680;BME280;34475;51.658;5.634;2023-02-11T04:16:00;103100;;;6.1;100.0
48680;BME280;34475;51.658;5.634;2023-02-11T04:17:00;103100;;;6.0;100.0
48680;BME280;34475;51.658;5.634;2023-02-11T04:18:00;103100;;;6.0;100.0
48680;BME280;34475;51.658;5.634;2023-02-11T04:19:00;103110;;;6.1;100.0
48680;BME280;34475;51.658;5.634;2023-02-11T04:20:00;103110;;;6.1;100.0
48680;BME280;34475;51.658;5.634;2023-02-11T04:21:00;103110;;;6.0;100.0
48680;BME280;34475;51.658;5.634;2023-02-11T04:22:00;103110;;;6.0;100.0
48680;BME280;34475;51.658;5.634;2023-02-11T04:23:00;103110;;;6.0;100.0
48680;BME280;34475;51.658;5.634;2023-02-11T04:24:00;103110;;;6.0;100.0
48680;BME280;34475;51.658;5.634;2023-02-11T04:25:00;103110;;;5.9;100.0
48680;BME280;34475;51.658;5.634;2023-02-11T04:26:00;103110;;;5.9;100.0
48680;BME280;34475;51.658;5.634;2023-02-11T04:27:00;103110;;;6.0;100.0
48680;BME280;34475;51.658;5.634;2023-02-11T04:28:00;103110;;;6.0;100.0
48680;BME280;34475;51.658;5.634;2023-02-11T04:29:00;103110;;;6.0;100.0
48680;BME280;34475;51.658;5.634;2023-02-11T04:30:00;103110;;;6.0;100.0
48680;BME280;34475;51.658;5.634;2023-02-11T04:31:00;103120;;;6.0;100.0
48680;BME280;34475;51.658;5.634;2023-02-11T04:32:00;103120;;;6.0;100.0
48680;BME280;34475;51.658;5.634;2023-02-11T04:33:00;103120;;;6.0;100.0
48680;BME280;34475;51.658;5.634;2023-02-11T04:34:00;103120;;;6.0;100.0
48680;BME280;34475;51.658;5.634;2023-02-11T04:35:00;103120;;;6.0;100.0
48680;BME280;34475;51.658;5.634;2023-02-11T04:36:00;103120;;;6.0;100.0
48680;BME280;34475;51.658;5.634;2023-02-11T04:37:00;103120;;;6.0;100.0
48680;BME280;34475;51.658;5.634;2023-02-11T04:38:00;103120;;;6.0;100.0
48680;BME280;34475;51.658;5.634;2023-02-11T04:39:00;103130;;;6.0;100.0
48680;BME280;34475;51.658;5.634;2023-02-11T04:40:00;103130;;;6.0;100.0
48680;BME280;34475;51.658;5.634;2023-02-11T04:41:00;103130;;;6.1;100.0
48680;BME280;34475;51.658;5.634;2023-02-11T04:42:00;103130;;;6.1;100.0
48680;BME280;34475;51.658;5.634;2023-02-11T04:43:00;103140;;;6.1;100.0
48680;BME280;34475;51.658;5.634;2023-02-11T04:44:00;103140;;;6.1;100.0
48680;BME280;34475;51.658;5.634;2023-02-11T04:45:00;103140;;;6.1;100.0
48680;BME280;34475;51.658;5.634;2023-02-11T04:46:00;103140;;;6.1;100.0
48680;BME280;34475;51.658;5.634;2023-02-11T04:47:00;103140;;;6.1;100.0
48680;BME280;34475;51.658;5.634;2023-02-11T04:48:00;103140;;;6.1;100.0
48680;BME280;34475;51.658;5.634;2023-02-11T04:49:00;103140;;;6.1;100.0
48680;BME280;34475;51.658;5.634;2023-02-11T04:50:00;103140;;;6.1;100.0
48680;BME280;34475;51.658;5.634;2023-02-11T04:51:00;103140;;;6.1;100.0
48680;BME280;34475;51.658;5.634;2023-02-11T04:52:00;103140;;;6.1;100.0
48680;BME280;34475;51.658;5.634;2023-02-11T04:53:00;103140;;;6.2;100.0
48680;BME280;34475;51.658;5.634;2023-02-11T04:54:00;103140;;;6.2;100.0
48680;BME280;34475;51.658;5.634;2023-02-11T04:55:00;103140;;;6.1;100.0
48680;BME280;34475;51.658;5.634;2023-02-11T04:56:00;103140;;;6.1;100.0
48680;BME280;34475;51.658;5.634;2023-02-11T04:57:00;103130;;;6.2;100.0
48680;BME280;34475;51.658;5.634;2023-02-11T04:58:00;103130;;;6.2;100.0
48680;BME280;34475;51.658;5.634;2023-02-11T04:59:00;103130;;;6.2;100.0
48680;BME280;34475;51.658;5.634;2023-02-11T05:00:00;103130;;;6.2;100.0
48680;BME280;34475;51.658;5.634;2023-02-11T05:01:08;103130;;;6.2;100.0
48680;BME280;34475;51.658;5.634;2023-02-11T05:02:00;103130;;;6.2;100.0
48680;BME280;34475;51.658;5.634;2023-02-11T05:03:00;103130;;;6.2;100.0
48680;BME280;34475;51.658;5.634;2023-02-11T05:04:00;103130;;;6.2;100.0
48680;BME280;34475;51.658;5.634;2023-02-11T05:05:00;103130;;;6.2;100.0
48680;BME280;34475;51.658;5.634;2023-02-11T05:06:00;103130;;;6.2;100.0
48680;BME280;34475;51.658;5.634;2023-02-11T05:07:00;103140;;;6.2;100.0
48680;BME280;34475;51.658;5.634;2023-02-11T05:08:00;103140;;;6.2;100.0
48680;BME280;34475;51.658;5.634;2023-02-11T05:09:00;103140;;;6.1;100.0
48680;BME280;34475;51.658;5.634;2023-02-11T05:10:00;103140;;;6.1;100.0
48680;BME280;34475;51.658;5.634;2023-02-11T05:11:00;103140;;;6.2;100.0
48680;BME280;34475;51.658;5.634;2023-02-11T05:12:00;103140;;;6.2;100.0
48680;BME280;34475;51.658;5.634;2023-02-11T05:13:00;103140;;;6.2;100.0
48680;BME280;34475;51.658;5.634;2023-02-11T05:14:00;103140;;;6.2;100.0
48680;BME280;34475;51.658;5.634;2023-02-11T05:15:00;103140;;;6.2;100.0
48680;BME280;34475;51.658;5.634;2023-02-11T05:16:00;103140;;;6.2;100.0
48680;BME280;34475;51.658;5.634;2023-02-11T05:17:00;103140;;;6.1;100.0
48680;BME280;34475;51.658;5.634;2023-02-11T05:18:00;103140;;;6.1;100.0
48680;BME280;34475;51.658;5.634;2023-02-11T05:19:00;103130;;;6.1;100.0
48680;BME280;34475;51.658;5.634;2023-02-11T05:20:00;103130;;;6.1;100.0
48680;BME280;34475;51.658;5.634;2023-02-11T05:21:04;103130;;;6.2;100.0
48680;BME280;34475;51.658;5.634;2023-02-11T05:22:00;103130;;;6.2;100.0
48680;BME280;34475;51.658;5.634;2023-02-11T05:23:00;103130;;;6.2;100.0
48680;BME280;34475;51.658;5.634;2023-02-11T05:24:00;103130;;;6.2;100.0
48680;BME280;34475;51.658;5.634;2023-02-11T05:25:00;103130;;;6.2;100.0
48680;BME280;34475;51.658;5.634;2023-02-11T05:26:00;103130;;;6.2;100.0
48680;BME280;34475;51.658;5.634;2023-02-11T05:27:00;103130;;;6.2;100.0
48680;BME280;34475;51.658;5.634;2023-02-11T05:28:00;103130;;;6.2;100.0
48680;BME280;34475;51.658;5.634;2023-02-11T05:29:00;103130;;;6.2;100.0
48680;BME280;34475;51.658;5.634;2023-02-11T05:30:00;103130;;;6.2;100.0
48680;BME280;34475;51.658;5.634;2023-02-11T05:31:00;103120;;;6.2;100.0
48680;BME280;34475;51.658;5.634;2023-02-11T05:32:00;103120;;;6.2;100.0
48680;BME280;34475;51.658;5.634;2023-02-11T05:33:00;103120;;;6.2;100.0
48680;BME280;34475;51.658;5.634;2023-02-11T05:34:00;103120;;;6.2;100.0
48680;BME280;34475;51.658;5.634;2023-02-11T05:35:00;103130;;;6.3;100.0
48680;BME280;34475;51.658;5.634;2023-02-11T05:36:01;103130;;;6.3;100.0
48680;BME280;34475;51.658;5.634;2023-02-11T05:37:00;103120;;;6.2;100.0
48680;BME280;34475;51.658;5.634;2023-02-11T05:38:00;103120;;;6.2;100.0
48680;BME280;34475;51.658;5.634;2023-02-11T05:39:00;103130;;;6.3;100.0
48680;BME280;34475;51.658;5.634;2023-02-11T05:40:00;103130;;;6.3;100.0
48680;BME280;34475;51.658;5.634;2023-02-11T05:41:00;103130;;;6.3;100.0
48680;BME280;34475;51.658;5.634;2023-02-11T05:42:00;103130;;;6.3;100.0
48680;BME280;34475;51.658;5.634;2023-02-11T05:43:00;103120;;;6.3;100.0
48680;BME280;34475;51.658;5.634;2023-02-11T05:44:00;103120;;;6.3;100.0
48680;BME280;34475;51.658;5.634;2023-02-11T05:45:00;103130;;;6.3;100.0
48680;BME280;34475;51.658;5.634;2023-02-11T05:46:00;103130;;;6.3;100.0
48680;BME280;34475;51.658;5.634;2023-02-11T05:47:00;103120;;;6.2;100.0
48680;BME280;34475;51.658;5.634;2023-02-11T05:48:00;103120;;;6.2;100.0
48680;BME280;34475;51.658;5.634;2023-02-11T05:49:00;103130;;;6.2;100.0
48680;BME280;34475;51.658;5.634;2023-02-11T05:50:00;103130;;;6.2;100.0
48680;BME280;34475;51.658;5.634;2023-02-11T05:51:00;103130;;;6.3;100.0
48680;BME280;34475;51.658;5.634;2023-02-11T05:52:00;103130;;;6.3;100.0
48680;BME280;34475;51.658;5.634;2023-02-11T05:53:00;103120;;;6.3;100.0
48680;BME280;34475;51.658;5.634;2023-02-11T05:54:00;103120;;;6.3;100.0
48680;BME280;34475;51.658;5.634;2023-02-11T05:55:00;103130;;;6.3;100.0
48680;BME280;34475;51.658;5.634;2023-02-11T05:56:00;103130;;;6.3;100.0
48680;BME280;34475;51.658;5.634;2023-02-11T05:57:00;103130;;;6.2;100.0
48680;BME280;34475;51.658;5.634;2023-02-11T05:58:00;103130;;;6.2;100.0
48680;BME280;34475;51.658;5.634;2023-02-11T05:59:00;103130;;;6.3;100.0
48680;BME280;34475;51.658;5.634;2023-02-11T06:00:00;103130;;;6.3;100.0
48680;BME280;34475;51.658;5.634;2023-02-11T06:01:00;103130;;;6.3;100.0
48680;BME280;34475;51.658;5.634;2023-02-11T06:02:00;103130;;;6.3;100.0
48680;BME280;34475;51.658;5.634;2023-02-11T06:03:00;103130;;;6.3;100.0
48680;BME280;34475;51.658;5.634;2023-02-11T06:04:00;103130;;;6.3;100.0
48680;BME280;34475;51.658;5.634;2023-02-11T06:05:00;103130;;;6.3;100.0
48680;BME280;34475;51.658;5.634;2023-02-11T06:06:00;103130;;;6.3;100.0
48680;BME280;34475;51.658;5.634;2023-02-11T06:07:00;103120;;;6.3;100.0